sensor_id;sensor_type;location;lat;lon;timestamp;P1;durP1;ratioP1;P2;durP2;ratioP2
11496;SDS011;5805;51.542;7.230;2022-12-18T00:00:57;26.83;;;14.77;;
11496;SDS011;5805;51.542;7.230;2022-12-18T00:03:24;26.90;;;15.23;;
11496;SDS011;5805;51.542;7.230;2022-12-18T00:05:50;22.13;;;13.43;;
11496;SDS011;5805;51.542;7.230;2022-12-18T00:08:17;28.73;;;15.93;;
11496;SDS011;5805;51.542;7.230;2022-12-18T00:10:43;23.77;;;14.67;;
11496;SDS011;5805;51.542;7.230;2022-12-18T00:13:09;24.37;;;13.93;;
11496;SDS011;5805;51.542;7.230;2022-12-18T00:15:36;25.17;;;15.47;;
11496;SDS011;5805;51.542;7.230;2022-12-18T00:18:02;25.23;;;15.53;;
11496;SDS011;5805;51.542;7.230;2022-12-18T00:20:29;22.70;;;15.20;;
11496;SDS011;5805;51.542;7.230;2022-12-18T00:22:55;26.13;;;14.73;;
11496;SDS011;5805;51.542;7.230;2022-12-18T00:25:21;26.73;;;15.80;;
11496;SDS011;5805;51.542;7.230;2022-12-18T00:27:47;24.50;;;15.47;;
11496;SDS011;5805;51.542;7.230;2022-12-18T00:30:12;31.30;;;15.53;;
11496;SDS011;5805;51.542;7.230;2022-12-18T00:32:38;25.60;;;14.30;;
11496;SDS011;5805;51.542;7.230;2022-12-18T00:35:04;25.17;;;14.67;;
11496;SDS011;5805;51.542;7.230;2022-12-18T00:37:34;21.53;;;14.40;;
11496;SDS011;5805;51.542;7.230;2022-12-18T00:40:00;22.80;;;14.97;;
11496;SDS011;5805;51.542;7.230;2022-12-18T00:42:25;26.77;;;15.80;;
11496;SDS011;5805;51.542;7.230;2022-12-18T00:44:51;26.30;;;13.80;;
11496;SDS011;5805;51.542;7.230;2022-12-18T00:47:17;23.13;;;13.60;;
11496;SDS011;5805;51.542;7.230;2022-12-18T00:49:42;22.00;;;14.43;;
11496;SDS011;5805;51.542;7.230;2022-12-18T00:52:08;26.57;;;14.73;;
11496;SDS011;5805;51.542;7.230;2022-12-18T00:54:35;24.53;;;14.67;;
11496;SDS011;5805;51.542;7.230;2022-12-18T00:57:01;27.97;;;15.93;;
11496;SDS011;5805;51.542;7.230;2022-12-18T00:59:26;26.93;;;15.70;;
11496;SDS011;5805;51.542;7.230;2022-12-18T01:01:52;26.30;;;14.97;;
11496;SDS011;5805;51.542;7.230;2022-12-18T01:04:17;25.97;;;15.10;;
11496;SDS011;5805;51.542;7.230;2022-12-18T01:06:43;22.07;;;13.57;;
11496;SDS011;5805;51.542;7.230;2022-12-18T01:09:09;24.37;;;14.43;;
11496;SDS011;5805;51.542;7.230;2022-12-18T01:11:36;22.60;;;13.80;;
11496;SDS011;5805;51.542;7.230;2022-12-18T01:14:01;23.50;;;14.20;;
11496;SDS011;5805;51.542;7.230;2022-12-18T01:16:27;22.33;;;13.43;;
11496;SDS011;5805;51.542;7.230;2022-12-18T01:18:53;25.43;;;14.03;;
11496;SDS011;5805;51.542;7.230;2022-12-18T01:21:19;24.87;;;13.87;;
11496;SDS011;5805;51.542;7.230;2022-12-18T01:23:46;26.43;;;15.00;;
11496;SDS011;5805;51.542;7.230;2022-12-18T01:26:15;24.97;;;14.90;;
11496;SDS011;5805;51.542;7.230;2022-12-18T01:28:42;22.67;;;14.37;;
11496;SDS011;5805;51.542;7.230;2022-12-18T01:31:09;21.00;;;13.87;;
11496;SDS011;5805;51.542;7.230;2022-12-18T01:33:40;21.47;;;13.73;;
11496;SDS011;5805;51.542;7.230;2022-12-18T01:36:06;27.47;;;14.07;;
11496;SDS011;5805;51.542;7.230;2022-12-18T01:38:32;23.80;;;14.27;;
11496;SDS011;5805;51.542;7.230;2022-12-18T01:40:58;24.60;;;14.47;;
11496;SDS011;5805;51.542;7.230;2022-12-18T01:46:13;23.53;;;13.30;;
11496;SDS011;5805;51.542;7.230;2022-12-18T01:48:40;25.73;;;14.33;;
11496;SDS011;5805;51.542;7.230;2022-12-18T01:51:07;23.97;;;13.73;;
11496;SDS011;5805;51.542;7.230;2022-12-18T01:53:34;23.10;;;13.77;;
11496;SDS011;5805;51.542;7.230;2022-12-18T01:56:02;21.27;;;12.87;;
11496;SDS011;5805;51.542;7.230;2022-12-18T01:58:29;24.70;;;14.40;;
11496;SDS011;5805;51.542;7.230;2022-12-18T02:01:01;24.73;;;14.30;;
11496;SDS011;5805;51.542;7.230;2022-12-18T02:03:27;20.03;;;12.37;;
11496;SDS011;5805;51.542;7.230;2022-12-18T02:05:54;24.63;;;12.27;;
11496;SDS011;5805;51.542;7.230;2022-12-18T02:08:26;22.00;;;13.13;;
11496;SDS011;5805;51.542;7.230;2022-12-18T02:10:57;21.70;;;13.27;;
11496;SDS011;5805;51.542;7.230;2022-12-18T02:13:30;25.13;;;13.37;;
11496;SDS011;5805;51.542;7.230;2022-12-18T02:16:03;26.77;;;13.67;;
11496;SDS011;5805;51.542;7.230;2022-12-18T02:18:37;21.40;;;12.70;;
11496;SDS011;5805;51.542;7.230;2022-12-18T02:21:08;20.83;;;13.20;;
11496;SDS011;5805;51.542;7.230;2022-12-18T02:23:46;21.67;;;12.60;;
11496;SDS011;5805;51.542;7.230;2022-12-18T02:26:21;21.10;;;12.97;;
11496;SDS011;5805;51.542;7.230;2022-12-18T02:28:53;21.53;;;13.47;;
11496;SDS011;5805;51.542;7.230;2022-12-18T02:31:24;22.90;;;13.40;;
11496;SDS011;5805;51.542;7.230;2022-12-18T02:33:53;19.47;;;12.63;;
11496;SDS011;5805;51.542;7.230;2022-12-18T02:36:24;20.27;;;12.57;;
11496;SDS011;5805;51.542;7.230;2022-12-18T02:38:52;21.13;;;11.90;;
11496;SDS011;5805;51.542;7.230;2022-12-18T02:41:25;25.10;;;14.27;;
11496;SDS011;5805;51.542;7.230;2022-12-18T02:43:53;21.40;;;12.53;;
11496;SDS011;5805;51.542;7.230;2022-12-18T02:46:24;23.70;;;13.00;;
11496;SDS011;5805;51.542;7.230;2022-12-18T02:48:53;18.93;;;12.83;;
11496;SDS011;5805;51.542;7.230;2022-12-18T02:51:27;22.07;;;13.73;;
11496;SDS011;5805;51.542;7.230;2022-12-18T02:53:58;21.10;;;12.97;;
11496;SDS011;5805;51.542;7.230;2022-12-18T02:56:31;22.37;;;12.87;;
11496;SDS011;5805;51.542;7.230;2022-12-18T02:59:04;22.87;;;12.57;;
11496;SDS011;5805;51.542;7.230;2022-12-18T03:01:35;19.57;;;12.10;;
11496;SDS011;5805;51.542;7.230;2022-12-18T03:04:07;20.77;;;12.07;;
11496;SDS011;5805;51.542;7.230;2022-12-18T03:06:39;17.67;;;11.33;;
11496;SDS011;5805;51.542;7.230;2022-12-18T03:09:09;21.30;;;11.83;;
11496;SDS011;5805;51.542;7.230;2022-12-18T03:11:41;21.17;;;11.77;;
11496;SDS011;5805;51.542;7.230;2022-12-18T03:14:11;18.43;;;12.77;;
11496;SDS011;5805;51.542;7.230;2022-12-18T03:16:40;19.23;;;10.63;;
11496;SDS011;5805;51.542;7.230;2022-12-18T03:19:08;18.77;;;11.17;;
11496;SDS011;5805;51.542;7.230;2022-12-18T03:21:40;17.63;;;11.87;;
11496;SDS011;5805;51.542;7.230;2022-12-18T03:24:10;20.53;;;11.03;;
11496;SDS011;5805;51.542;7.230;2022-12-18T03:26:36;20.60;;;11.20;;
11496;SDS011;5805;51.542;7.230;2022-12-18T03:29:06;17.13;;;10.60;;
11496;SDS011;5805;51.542;7.230;2022-12-18T03:31:37;18.03;;;10.93;;
11496;SDS011;5805;51.542;7.230;2022-12-18T03:34:08;17.40;;;11.00;;
11496;SDS011;5805;51.542;7.230;2022-12-18T03:36:36;18.40;;;11.50;;
11496;SDS011;5805;51.542;7.230;2022-12-18T03:39:02;17.30;;;10.57;;
11496;SDS011;5805;51.542;7.230;2022-12-18T03:41:28;21.83;;;12.17;;
11496;SDS011;5805;51.542;7.230;2022-12-18T03:43:58;15.67;;;10.67;;
11496;SDS011;5805;51.542;7.230;2022-12-18T03:46:33;16.97;;;10.80;;
11496;SDS011;5805;51.542;7.230;2022-12-18T03:49:06;21.73;;;10.63;;
11496;SDS011;5805;51.542;7.230;2022-12-18T03:51:37;17.13;;;10.47;;
11496;SDS011;5805;51.542;7.230;2022-12-18T03:54:07;16.47;;;11.13;;
11496;SDS011;5805;51.542;7.230;2022-12-18T03:56:37;17.17;;;10.70;;
11496;SDS011;5805;51.542;7.230;2022-12-18T03:59:05;19.40;;;11.33;;
11496;SDS011;5805;51.542;7.230;2022-12-18T04:01:34;16.57;;;10.67;;
11496;SDS011;5805;51.542;7.230;2022-12-18T04:04:03;17.73;;;10.77;;
11496;SDS011;5805;51.542;7.230;2022-12-18T04:06:30;18.17;;;11.30;;
11496;SDS011;5805;51.542;7.230;2022-12-18T04:09:01;17.93;;;11.37;;
11496;SDS011;5805;51.542;7.230;2022-12-18T04:11:28;18.97;;;11.43;;
11496;SDS011;5805;51.542;7.230;2022-12-18T04:13:55;17.53;;;10.60;;
11496;SDS011;5805;51.542;7.230;2022-12-18T04:16:21;18.77;;;10.87;;
11496;SDS011;5805;51.542;7.230;2022-12-18T04:18:48;17.53;;;10.80;;
11496;SDS011;5805;51.542;7.230;2022-12-18T04:21:14;16.43;;;10.70;;
11496;SDS011;5805;51.542;7.230;2022-12-18T04:23:39;16.03;;;10.33;;
11496;SDS011;5805;51.542;7.230;2022-12-18T04:26:05;21.73;;;11.47;;
11496;SDS011;5805;51.542;7.230;2022-12-18T04:28:31;17.47;;;10.20;;
11496;SDS011;5805;51.542;7.230;2022-12-18T04:30:56;19.23;;;10.73;;
11496;SDS011;5805;51.542;7.230;2022-12-18T04:33:22;19.50;;;10.90;;
11496;SDS011;5805;51.542;7.230;2022-12-18T04:35:49;18.67;;;11.07;;
11496;SDS011;5805;51.542;7.230;2022-12-18T04:38:14;15.83;;;10.13;;
11496;SDS011;5805;51.542;7.230;2022-12-18T04:40:40;16.67;;;10.23;;
11496;SDS011;5805;51.542;7.230;2022-12-18T04:43:06;19.13;;;10.87;;
11496;SDS011;5805;51.542;7.230;2022-12-18T04:45:32;16.83;;;10.53;;
11496;SDS011;5805;51.542;7.230;2022-12-18T04:47:58;15.03;;;10.90;;
11496;SDS011;5805;51.542;7.230;2022-12-18T04:50:24;14.93;;;10.07;;
11496;SDS011;5805;51.542;7.230;2022-12-18T04:52:51;15.97;;;10.27;;
11496;SDS011;5805;51.542;7.230;2022-12-18T04:55:17;17.57;;;10.30;;
11496;SDS011;5805;51.542;7.230;2022-12-18T04:57:42;17.27;;;10.90;;
11496;SDS011;5805;51.542;7.230;2022-12-18T05:00:08;17.93;;;10.70;;
11496;SDS011;5805;51.542;7.230;2022-12-18T05:02:35;16.03;;;10.70;;
11496;SDS011;5805;51.542;7.230;2022-12-18T05:05:00;16.83;;;11.03;;
11496;SDS011;5805;51.542;7.230;2022-12-18T05:07:26;14.77;;;9.83;;
11496;SDS011;5805;51.542;7.230;2022-12-18T05:09:53;17.17;;;9.43;;
11496;SDS011;5805;51.542;7.230;2022-12-18T05:12:19;20.83;;;11.13;;
11496;SDS011;5805;51.542;7.230;2022-12-18T05:14:45;16.73;;;10.70;;
11496;SDS011;5805;51.542;7.230;2022-12-18T05:17:10;16.30;;;10.03;;
11496;SDS011;5805;51.542;7.230;2022-12-18T05:19:36;14.43;;;9.77;;
11496;SDS011;5805;51.542;7.230;2022-12-18T05:22:01;17.03;;;10.73;;
11496;SDS011;5805;51.542;7.230;2022-12-18T05:24:27;15.97;;;9.30;;
11496;SDS011;5805;51.542;7.230;2022-12-18T05:26:54;16.90;;;10.13;;
11496;SDS011;5805;51.542;7.230;2022-12-18T05:29:20;17.97;;;10.20;;
11496;SDS011;5805;51.542;7.230;2022-12-18T05:31:45;17.23;;;10.10;;
11496;SDS011;5805;51.542;7.230;2022-12-18T05:34:11;19.73;;;10.17;;
11496;SDS011;5805;51.542;7.230;2022-12-18T05:36:37;16.97;;;10.20;;
11496;SDS011;5805;51.542;7.230;2022-12-18T05:39:02;19.00;;;11.07;;
11496;SDS011;5805;51.542;7.230;2022-12-18T05:41:28;15.87;;;9.90;;
11496;SDS011;5805;51.542;7.230;2022-12-18T05:43:55;17.93;;;10.30;;
11496;SDS011;5805;51.542;7.230;2022-12-18T05:46:21;15.57;;;10.07;;
11496;SDS011;5805;51.542;7.230;2022-12-18T05:48:47;13.87;;;9.40;;
11496;SDS011;5805;51.542;7.230;2022-12-18T05:51:13;17.23;;;9.80;;
11496;SDS011;5805;51.542;7.230;2022-12-18T05:53:41;17.70;;;9.40;;
11496;SDS011;5805;51.542;7.230;2022-12-18T05:56:08;18.40;;;9.80;;
11496;SDS011;5805;51.542;7.230;2022-12-18T05:58:38;15.07;;;9.70;;
11496;SDS011;5805;51.542;7.230;2022-12-18T06:01:10;16.40;;;9.23;;
11496;SDS011;5805;51.542;7.230;2022-12-18T06:03:37;16.87;;;10.37;;
11496;SDS011;5805;51.542;7.230;2022-12-18T06:06:03;15.17;;;9.40;;
11496;SDS011;5805;51.542;7.230;2022-12-18T06:08:29;16.90;;;9.97;;
11496;SDS011;5805;51.542;7.230;2022-12-18T06:10:55;16.90;;;9.67;;
11496;SDS011;5805;51.542;7.230;2022-12-18T06:13:21;13.43;;;8.20;;
11496;SDS011;5805;51.542;7.230;2022-12-18T06:15:47;13.63;;;9.30;;
11496;SDS011;5805;51.542;7.230;2022-12-18T06:18:14;14.87;;;9.10;;
11496;SDS011;5805;51.542;7.230;2022-12-18T06:20:40;13.30;;;8.37;;
11496;SDS011;5805;51.542;7.230;2022-12-18T06:23:05;18.43;;;9.43;;
11496;SDS011;5805;51.542;7.230;2022-12-18T06:25:31;16.53;;;10.03;;
11496;SDS011;5805;51.542;7.230;2022-12-18T06:27:57;13.23;;;8.60;;
11496;SDS011;5805;51.542;7.230;2022-12-18T06:30:23;13.37;;;8.40;;
11496;SDS011;5805;51.542;7.230;2022-12-18T06:32:49;11.77;;;8.77;;
11496;SDS011;5805;51.542;7.230;2022-12-18T06:35:16;13.23;;;8.37;;
11496;SDS011;5805;51.542;7.230;2022-12-18T06:37:42;12.87;;;8.20;;
11496;SDS011;5805;51.542;7.230;2022-12-18T06:40:08;16.70;;;9.80;;
11496;SDS011;5805;51.542;7.230;2022-12-18T06:42:34;16.93;;;9.33;;
11496;SDS011;5805;51.542;7.230;2022-12-18T06:44:59;12.00;;;8.63;;
11496;SDS011;5805;51.542;7.230;2022-12-18T06:47:25;15.47;;;8.73;;
11496;SDS011;5805;51.542;7.230;2022-12-18T06:49:51;13.37;;;9.27;;
11496;SDS011;5805;51.542;7.230;2022-12-18T06:52:18;14.97;;;9.20;;
11496;SDS011;5805;51.542;7.230;2022-12-18T06:54:43;15.17;;;9.77;;
11496;SDS011;5805;51.542;7.230;2022-12-18T06:57:09;13.13;;;9.30;;
11496;SDS011;5805;51.542;7.230;2022-12-18T06:59:34;15.60;;;8.63;;
11496;SDS011;5805;51.542;7.230;2022-12-18T07:02:00;13.70;;;8.90;;
11496;SDS011;5805;51.542;7.230;2022-12-18T07:04:27;14.43;;;9.03;;
11496;SDS011;5805;51.542;7.230;2022-12-18T07:06:53;16.83;;;9.10;;
11496;SDS011;5805;51.542;7.230;2022-12-18T07:09:20;13.60;;;8.50;;
11496;SDS011;5805;51.542;7.230;2022-12-18T07:11:46;14.40;;;8.93;;
11496;SDS011;5805;51.542;7.230;2022-12-18T07:14:11;14.77;;;8.80;;
11496;SDS011;5805;51.542;7.230;2022-12-18T07:16:37;12.47;;;8.23;;
11496;SDS011;5805;51.542;7.230;2022-12-18T07:19:03;13.27;;;8.57;;
11496;SDS011;5805;51.542;7.230;2022-12-18T07:21:28;11.77;;;9.03;;
11496;SDS011;5805;51.542;7.230;2022-12-18T07:23:54;13.90;;;8.20;;
11496;SDS011;5805;51.542;7.230;2022-12-18T07:26:21;15.07;;;9.70;;
11496;SDS011;5805;51.542;7.230;2022-12-18T07:28:47;13.20;;;8.57;;
11496;SDS011;5805;51.542;7.230;2022-12-18T07:31:14;13.17;;;8.73;;
11496;SDS011;5805;51.542;7.230;2022-12-18T07:33:41;13.93;;;8.80;;
11496;SDS011;5805;51.542;7.230;2022-12-18T07:36:08;12.30;;;8.63;;
11496;SDS011;5805;51.542;7.230;2022-12-18T07:38:35;16.30;;;9.73;;
11496;SDS011;5805;51.542;7.230;2022-12-18T07:41:00;15.80;;;9.60;;
11496;SDS011;5805;51.542;7.230;2022-12-18T07:43:28;14.73;;;8.87;;
11496;SDS011;5805;51.542;7.230;2022-12-18T07:45:53;13.50;;;8.10;;
11496;SDS011;5805;51.542;7.230;2022-12-18T07:48:19;16.00;;;9.10;;
11496;SDS011;5805;51.542;7.230;2022-12-18T07:50:45;14.03;;;8.90;;
11496;SDS011;5805;51.542;7.230;2022-12-18T07:53:11;14.53;;;8.23;;
11496;SDS011;5805;51.542;7.230;2022-12-18T07:55:36;12.93;;;8.60;;
11496;SDS011;5805;51.542;7.230;2022-12-18T07:58:02;15.13;;;9.13;;
11496;SDS011;5805;51.542;7.230;2022-12-18T08:00:30;14.07;;;8.33;;
11496;SDS011;5805;51.542;7.230;2022-12-18T08:02:56;14.10;;;7.97;;
11496;SDS011;5805;51.542;7.230;2022-12-18T08:05:22;13.37;;;8.63;;
11496;SDS011;5805;51.542;7.230;2022-12-18T08:07:47;12.87;;;8.23;;
11496;SDS011;5805;51.542;7.230;2022-12-18T08:10:13;13.57;;;8.13;;
11496;SDS011;5805;51.542;7.230;2022-12-18T08:12:39;12.73;;;8.00;;
11496;SDS011;5805;51.542;7.230;2022-12-18T08:15:05;15.43;;;9.13;;
11496;SDS011;5805;51.542;7.230;2022-12-18T08:17:33;12.07;;;8.67;;
11496;SDS011;5805;51.542;7.230;2022-12-18T08:19:58;14.77;;;8.83;;
11496;SDS011;5805;51.542;7.230;2022-12-18T08:22:24;13.63;;;8.60;;
11496;SDS011;5805;51.542;7.230;2022-12-18T08:24:50;13.17;;;8.60;;
11496;SDS011;5805;51.542;7.230;2022-12-18T08:27:16;13.30;;;8.40;;
11496;SDS011;5805;51.542;7.230;2022-12-18T08:29:41;16.60;;;9.57;;
11496;SDS011;5805;51.542;7.230;2022-12-18T08:32:07;12.70;;;8.03;;
11496;SDS011;5805;51.542;7.230;2022-12-18T08:34:34;12.57;;;8.57;;
11496;SDS011;5805;51.542;7.230;2022-12-18T08:37:00;12.03;;;8.10;;
11496;SDS011;5805;51.542;7.230;2022-12-18T08:39:26;15.97;;;8.40;;
11496;SDS011;5805;51.542;7.230;2022-12-18T08:41:51;15.07;;;8.30;;
11496;SDS011;5805;51.542;7.230;2022-12-18T08:44:17;13.00;;;8.20;;
11496;SDS011;5805;51.542;7.230;2022-12-18T08:46:43;13.70;;;8.77;;
11496;SDS011;5805;51.542;7.230;2022-12-18T08:49:09;16.10;;;8.47;;
11496;SDS011;5805;51.542;7.230;2022-12-18T08:51:37;13.03;;;8.23;;
11496;SDS011;5805;51.542;7.230;2022-12-18T08:54:03;11.70;;;8.37;;
11496;SDS011;5805;51.542;7.230;2022-12-18T08:56:29;13.77;;;8.77;;
11496;SDS011;5805;51.542;7.230;2022-12-18T08:58:54;13.57;;;8.20;;
11496;SDS011;5805;51.542;7.230;2022-12-18T09:01:21;15.40;;;7.90;;
11496;SDS011;5805;51.542;7.230;2022-12-18T09:03:47;13.10;;;7.23;;
11496;SDS011;5805;51.542;7.230;2022-12-18T09:06:13;13.60;;;8.83;;
11496;SDS011;5805;51.542;7.230;2022-12-18T09:08:41;13.37;;;7.97;;
11496;SDS011;5805;51.542;7.230;2022-12-18T09:11:10;16.53;;;8.50;;
11496;SDS011;5805;51.542;7.230;2022-12-18T09:13:38;14.60;;;8.67;;
11496;SDS011;5805;51.542;7.230;2022-12-18T09:16:04;11.53;;;8.27;;
11496;SDS011;5805;51.542;7.230;2022-12-18T09:18:29;14.20;;;8.50;;
11496;SDS011;5805;51.542;7.230;2022-12-18T09:20:55;12.10;;;7.83;;
11496;SDS011;5805;51.542;7.230;2022-12-18T09:23:21;13.03;;;7.70;;
11496;SDS011;5805;51.542;7.230;2022-12-18T09:25:48;12.10;;;7.67;;
11496;SDS011;5805;51.542;7.230;2022-12-18T09:28:14;14.70;;;8.40;;
11496;SDS011;5805;51.542;7.230;2022-12-18T09:30:42;12.40;;;7.90;;
11496;SDS011;5805;51.542;7.230;2022-12-18T09:33:08;10.97;;;7.73;;
11496;SDS011;5805;51.542;7.230;2022-12-18T09:35:35;13.03;;;8.00;;
11496;SDS011;5805;51.542;7.230;2022-12-18T09:38:01;11.47;;;7.60;;
11496;SDS011;5805;51.542;7.230;2022-12-18T09:40:28;14.27;;;8.77;;
11496;SDS011;5805;51.542;7.230;2022-12-18T09:43:03;13.47;;;8.60;;
11496;SDS011;5805;51.542;7.230;2022-12-18T09:45:30;12.03;;;8.57;;
11496;SDS011;5805;51.542;7.230;2022-12-18T09:47:59;10.93;;;7.57;;
11496;SDS011;5805;51.542;7.230;2022-12-18T09:50:27;14.43;;;8.43;;
11496;SDS011;5805;51.542;7.230;2022-12-18T09:52:56;12.17;;;7.30;;
11496;SDS011;5805;51.542;7.230;2022-12-18T09:55:25;12.40;;;8.33;;
11496;SDS011;5805;51.542;7.230;2022-12-18T09:57:55;13.77;;;9.07;;
11496;SDS011;5805;51.542;7.230;2022-12-18T10:00:26;14.07;;;8.60;;
11496;SDS011;5805;51.542;7.230;2022-12-18T10:02:53;13.27;;;8.17;;
11496;SDS011;5805;51.542;7.230;2022-12-18T10:05:27;16.70;;;11.30;;
11496;SDS011;5805;51.542;7.230;2022-12-18T10:08:01;12.50;;;9.03;;
11496;SDS011;5805;51.542;7.230;2022-12-18T10:10:36;14.30;;;9.10;;
11496;SDS011;5805;51.542;7.230;2022-12-18T10:13:10;13.77;;;8.57;;
11496;SDS011;5805;51.542;7.230;2022-12-18T10:15:48;12.37;;;7.90;;
11496;SDS011;5805;51.542;7.230;2022-12-18T10:18:36;11.77;;;7.37;;
11496;SDS011;5805;51.542;7.230;2022-12-18T10:21:15;12.43;;;7.70;;
11496;SDS011;5805;51.542;7.230;2022-12-18T10:23:47;12.03;;;8.03;;
11496;SDS011;5805;51.542;7.230;2022-12-18T10:26:17;11.13;;;7.77;;
11496;SDS011;5805;51.542;7.230;2022-12-18T10:28:43;12.90;;;7.90;;
11496;SDS011;5805;51.542;7.230;2022-12-18T10:31:14;11.03;;;7.40;;
11496;SDS011;5805;51.542;7.230;2022-12-18T10:33:41;12.50;;;8.03;;
11496;SDS011;5805;51.542;7.230;2022-12-18T10:36:07;9.67;;;7.23;;
11496;SDS011;5805;51.542;7.230;2022-12-18T10:38:33;8.13;;;6.00;;
11496;SDS011;5805;51.542;7.230;2022-12-18T10:41:00;10.90;;;7.57;;
11496;SDS011;5805;51.542;7.230;2022-12-18T10:43:28;9.93;;;7.10;;
11496;SDS011;5805;51.542;7.230;2022-12-18T10:46:02;9.70;;;6.93;;
11496;SDS011;5805;51.542;7.230;2022-12-18T10:48:46;10.70;;;6.90;;
11496;SDS011;5805;51.542;7.230;2022-12-18T10:51:19;9.77;;;6.73;;
11496;SDS011;5805;51.542;7.230;2022-12-18T10:53:50;10.50;;;6.27;;
11496;SDS011;5805;51.542;7.230;2022-12-18T10:56:19;11.53;;;7.30;;
11496;SDS011;5805;51.542;7.230;2022-12-18T10:58:45;9.03;;;6.50;;
11496;SDS011;5805;51.542;7.230;2022-12-18T11:01:23;10.13;;;7.27;;
11496;SDS011;5805;51.542;7.230;2022-12-18T11:03:59;12.10;;;7.57;;
11496;SDS011;5805;51.542;7.230;2022-12-18T11:06:26;12.33;;;7.70;;
11496;SDS011;5805;51.542;7.230;2022-12-18T11:08:57;12.87;;;7.70;;
11496;SDS011;5805;51.542;7.230;2022-12-18T11:11:24;12.87;;;6.73;;
11496;SDS011;5805;51.542;7.230;2022-12-18T11:14:01;11.27;;;7.13;;
11496;SDS011;5805;51.542;7.230;2022-12-18T11:16:30;13.57;;;7.67;;
11496;SDS011;5805;51.542;7.230;2022-12-18T11:19:17;11.73;;;7.10;;
11496;SDS011;5805;51.542;7.230;2022-12-18T11:21:46;10.33;;;6.67;;
11496;SDS011;5805;51.542;7.230;2022-12-18T11:24:17;9.47;;;6.40;;
11496;SDS011;5805;51.542;7.230;2022-12-18T11:26:46;9.40;;;6.63;;
11496;SDS011;5805;51.542;7.230;2022-12-18T11:29:15;9.47;;;6.67;;
11496;SDS011;5805;51.542;7.230;2022-12-18T11:31:43;10.40;;;6.33;;
11496;SDS011;5805;51.542;7.230;2022-12-18T11:34:10;9.23;;;6.60;;
11496;SDS011;5805;51.542;7.230;2022-12-18T11:36:40;8.40;;;6.20;;
11496;SDS011;5805;51.542;7.230;2022-12-18T11:39:10;9.37;;;6.33;;
11496;SDS011;5805;51.542;7.230;2022-12-18T11:41:41;7.73;;;6.47;;
11496;SDS011;5805;51.542;7.230;2022-12-18T11:44:15;9.57;;;5.90;;
11496;SDS011;5805;51.542;7.230;2022-12-18T11:46:49;8.60;;;5.93;;
11496;SDS011;5805;51.542;7.230;2022-12-18T11:49:20;9.23;;;6.17;;
11496;SDS011;5805;51.542;7.230;2022-12-18T11:51:50;10.07;;;6.53;;
11496;SDS011;5805;51.542;7.230;2022-12-18T11:54:20;9.80;;;6.87;;
11496;SDS011;5805;51.542;7.230;2022-12-18T11:56:48;9.30;;;5.93;;
11496;SDS011;5805;51.542;7.230;2022-12-18T11:59:20;9.23;;;6.30;;
11496;SDS011;5805;51.542;7.230;2022-12-18T12:02:00;10.00;;;6.20;;
11496;SDS011;5805;51.542;7.230;2022-12-18T12:04:44;8.30;;;5.77;;
11496;SDS011;5805;51.542;7.230;2022-12-18T12:07:17;9.47;;;6.00;;
11496;SDS011;5805;51.542;7.230;2022-12-18T12:10:01;7.87;;;5.60;;
11496;SDS011;5805;51.542;7.230;2022-12-18T12:12:37;7.60;;;5.37;;
11496;SDS011;5805;51.542;7.230;2022-12-18T12:15:16;9.87;;;6.07;;
11496;SDS011;5805;51.542;7.230;2022-12-18T12:17:50;7.47;;;5.60;;
11496;SDS011;5805;51.542;7.230;2022-12-18T12:20:24;7.50;;;6.30;;
11496;SDS011;5805;51.542;7.230;2022-12-18T12:23:00;10.63;;;6.07;;
11496;SDS011;5805;51.542;7.230;2022-12-18T12:25:33;8.30;;;6.37;;
11496;SDS011;5805;51.542;7.230;2022-12-18T12:28:10;8.23;;;6.60;;
11496;SDS011;5805;51.542;7.230;2022-12-18T12:30:44;9.33;;;6.07;;
11496;SDS011;5805;51.542;7.230;2022-12-18T12:33:24;8.50;;;6.13;;
11496;SDS011;5805;51.542;7.230;2022-12-18T12:36:02;8.37;;;5.77;;
11496;SDS011;5805;51.542;7.230;2022-12-18T12:38:35;9.70;;;5.93;;
11496;SDS011;5805;51.542;7.230;2022-12-18T12:41:06;7.07;;;5.77;;
11496;SDS011;5805;51.542;7.230;2022-12-18T12:43:35;8.20;;;6.07;;
11496;SDS011;5805;51.542;7.230;2022-12-18T12:46:06;8.43;;;5.93;;
11496;SDS011;5805;51.542;7.230;2022-12-18T12:48:37;8.07;;;5.97;;
11496;SDS011;5805;51.542;7.230;2022-12-18T12:51:08;8.10;;;5.80;;
11496;SDS011;5805;51.542;7.230;2022-12-18T12:53:38;9.67;;;6.03;;
11496;SDS011;5805;51.542;7.230;2022-12-18T12:56:05;6.67;;;5.00;;
11496;SDS011;5805;51.542;7.230;2022-12-18T12:58:34;7.20;;;5.63;;
11496;SDS011;5805;51.542;7.230;2022-12-18T13:01:09;7.50;;;5.47;;
11496;SDS011;5805;51.542;7.230;2022-12-18T13:03:46;8.30;;;5.30;;
11496;SDS011;5805;51.542;7.230;2022-12-18T13:06:19;6.83;;;5.30;;
11496;SDS011;5805;51.542;7.230;2022-12-18T13:08:58;9.13;;;6.10;;
11496;SDS011;5805;51.542;7.230;2022-12-18T13:11:35;7.33;;;5.23;;
11496;SDS011;5805;51.542;7.230;2022-12-18T13:14:02;7.60;;;5.67;;
11496;SDS011;5805;51.542;7.230;2022-12-18T13:16:28;8.20;;;5.83;;
11496;SDS011;5805;51.542;7.230;2022-12-18T13:18:55;8.83;;;6.17;;
11496;SDS011;5805;51.542;7.230;2022-12-18T13:21:23;7.90;;;5.93;;
11496;SDS011;5805;51.542;7.230;2022-12-18T13:23:52;7.30;;;5.37;;
11496;SDS011;5805;51.542;7.230;2022-12-18T13:28:58;8.73;;;6.07;;
11496;SDS011;5805;51.542;7.230;2022-12-18T13:34:25;8.80;;;5.57;;
11496;SDS011;5805;51.542;7.230;2022-12-18T13:36:52;9.20;;;6.27;;
11496;SDS011;5805;51.542;7.230;2022-12-18T13:44:55;9.97;;;6.97;;
11496;SDS011;5805;51.542;7.230;2022-12-18T13:47:25;9.03;;;6.03;;
11496;SDS011;5805;51.542;7.230;2022-12-18T13:49:54;11.87;;;7.23;;
11496;SDS011;5805;51.542;7.230;2022-12-18T13:52:22;8.87;;;6.30;;
11496;SDS011;5805;51.542;7.230;2022-12-18T13:54:50;8.37;;;6.40;;
11496;SDS011;5805;51.542;7.230;2022-12-18T13:57:28;7.53;;;6.23;;
11496;SDS011;5805;51.542;7.230;2022-12-18T13:59:54;9.03;;;6.37;;
11496;SDS011;5805;51.542;7.230;2022-12-18T14:02:21;9.33;;;6.50;;
11496;SDS011;5805;51.542;7.230;2022-12-18T14:04:48;8.30;;;5.90;;
11496;SDS011;5805;51.542;7.230;2022-12-18T14:07:16;11.33;;;6.83;;
11496;SDS011;5805;51.542;7.230;2022-12-18T14:09:44;7.93;;;5.83;;
11496;SDS011;5805;51.542;7.230;2022-12-18T14:12:14;8.97;;;6.13;;
11496;SDS011;5805;51.542;7.230;2022-12-18T14:14:42;7.47;;;6.03;;
11496;SDS011;5805;51.542;7.230;2022-12-18T14:17:10;8.33;;;6.30;;
11496;SDS011;5805;51.542;7.230;2022-12-18T14:19:36;7.90;;;6.20;;
11496;SDS011;5805;51.542;7.230;2022-12-18T14:22:09;8.23;;;5.83;;
11496;SDS011;5805;51.542;7.230;2022-12-18T14:24:41;6.07;;;4.43;;
11496;SDS011;5805;51.542;7.230;2022-12-18T14:27:12;7.03;;;4.33;;
11496;SDS011;5805;51.542;7.230;2022-12-18T14:29:44;6.43;;;4.80;;
11496;SDS011;5805;51.542;7.230;2022-12-18T14:32:10;9.30;;;6.93;;
11496;SDS011;5805;51.542;7.230;2022-12-18T14:34:37;7.47;;;5.43;;
11496;SDS011;5805;51.542;7.230;2022-12-18T14:37:03;6.90;;;4.73;;
11496;SDS011;5805;51.542;7.230;2022-12-18T14:39:29;9.17;;;6.40;;
11496;SDS011;5805;51.542;7.230;2022-12-18T14:41:56;11.60;;;6.27;;
11496;SDS011;5805;51.542;7.230;2022-12-18T14:44:22;9.83;;;6.63;;
11496;SDS011;5805;51.542;7.230;2022-12-18T14:46:48;9.97;;;6.47;;
11496;SDS011;5805;51.542;7.230;2022-12-18T14:49:18;13.13;;;7.40;;
11496;SDS011;5805;51.542;7.230;2022-12-18T14:51:47;10.10;;;6.87;;
11496;SDS011;5805;51.542;7.230;2022-12-18T14:54:15;11.10;;;7.03;;
11496;SDS011;5805;51.542;7.230;2022-12-18T14:56:44;10.43;;;7.73;;
11496;SDS011;5805;51.542;7.230;2022-12-18T14:59:14;10.37;;;7.50;;
11496;SDS011;5805;51.542;7.230;2022-12-18T15:01:44;10.50;;;7.53;;
11496;SDS011;5805;51.542;7.230;2022-12-18T15:04:23;10.87;;;7.40;;
11496;SDS011;5805;51.542;7.230;2022-12-18T15:07:02;9.33;;;6.87;;